Seapacis — VRBE2 — position and weather

sailwx.info

Track history (hours):
 
Tides and Currents Weather Stations Pressure Air Temp Water Temp Dewpoint Dewpoint Depression Visibility Wind Speed Wind Dir Waves Ship Positions

Seapacis

Last reported at 2018-Jan-04 19:55 UTC. Time now 2018-Jan-23 08:03 UTC.
Position N 34°55' W 017°12'.
Warning: this ship's position is 18 days out of date.

Length 241 m; draft 10 m.

Type: Ship (hazmat cat D). MMSI: 477999500.

Date/timePositionNaut miles runAvg speedWind from/ knotsBaromVisibWave heightAir tempDewpointWater temp
2018-Jan-04 19:55N 34°55' W 017°12'512.8
2018-Jan-04 19:30N 34°56' W 017°06'713.0
2018-Jan-04 19:00N 34°57' W 016°58'1612.8
2018-Jan-04 17:46N 34°60' W 016°39'54412.8
2018-Jan-02 23:15N 35°57' W 005°36'311.7
2018-Jan-02 23:00N 35°58' W 005°32'611.1
2018-Jan-02 22:30N 35°60' W 005°25'510.4
2018-Jan-02 22:00N 36°01' W 005°20'5 9.9
2018-Jan-02 21:30N 36°03' W 005°14'29512.3
2018-Jan-01 21:28N 37°00' E 000°46'812.1
2018-Jan-01 20:47N 37°03' E 000°56'312.0
2018-Jan-01 20:30N 37°04' E 000°60'  
Track history (hours):
 
Tides and Currents Weather Stations Pressure Air Temp Water Temp Dewpoint Dewpoint Depression Visibility Wind Speed Wind Dir Waves Ship Positions

Seapacis

Last reported at 2018-Jan-04 19:55 UTC. Time now 2018-Jan-23 08:03 UTC.
Position N 34°55' W 017°12'.
Warning: this ship's position is 18 days out of date.

Length 241 m; draft 10 m.

Type: Ship (hazmat cat D). MMSI: 477999500.

Date/timePositionNaut miles runAvg speedWind from/ knotsBaromVisibWave heightAir tempDewpointWater temp
2018-Jan-04 19:55N 34°55' W 017°12'512.8
2018-Jan-04 19:30N 34°56' W 017°06'713.0
2018-Jan-04 19:00N 34°57' W 016°58'1612.8
2018-Jan-04 17:46N 34°60' W 016°39'54412.8
2018-Jan-02 23:15N 35°57' W 005°36'311.7
2018-Jan-02 23:00N 35°58' W 005°32'611.1
2018-Jan-02 22:30N 35°60' W 005°25'510.4
2018-Jan-02 22:00N 36°01' W 005°20'5 9.9
2018-Jan-02 21:30N 36°03' W 005°14'29512.3
2018-Jan-01 21:28N 37°00' E 000°46'812.1
2018-Jan-01 20:47N 37°03' E 000°56'312.0
2018-Jan-01 20:30N 37°04' E 000°60'  

Dump ship's entire track history